Time;durP1;ratioP1;P1;durP2;ratioP2;P2;SDS_P1;SDS_P2;PMS_P1;PMS_P2;Temp;Humidity;BMP_temperature;BMP_pressure;BME280_temperature;BME280_humidity;BME280_pressure;Samples;Min_cycle;Max_cycle;Signal;HPM_P1;HPM_P2
2024/01/23 00:00:47;;;;;;;;;;;6.50;99.90;;;;;;5112127;28;19924;-32
2024/01/23 00:03:16;;;;;;;;;;;6.50;99.90;;;;;;5110093;27;19992;-32
2024/01/23 00:05:42;;;;;;;;;;;6.50;99.90;;;;;;5113770;28;19923;-31
2024/01/23 00:08:09;;;;;;;;;;;6.50;99.90;;;;;;5104616;28;19927;-32
2024/01/23 00:10:35;;;;;;;;;;;6.50;99.90;;;;;;5102343;28;20386;-32
2024/01/23 00:13:02;;;;;;;;;;;6.50;99.90;;;;;;5109290;28;20364;-32
2024/01/23 00:15:29;;;;;;;;;;;6.50;99.90;;;;;;5108594;28;19928;-33
2024/01/23 00:17:55;;;;;;;;;;;6.60;99.90;;;;;;5113239;28;19985;-34
2024/01/23 00:20:23;;;;;;;;;;;6.50;99.90;;;;;;5112764;28;20410;-32
2024/01/23 00:22:50;;;;;;;;;;;6.50;99.90;;;;;;5110252;28;20440;-33
2024/01/23 00:25:17;;;;;;;;;;;6.50;99.90;;;;;;5108370;28;19959;-32
2024/01/23 00:27:43;;;;;;;;;;;6.50;99.90;;;;;;5108756;28;19931;-33
2024/01/23 00:30:11;;;;;;;;;;;6.50;99.90;;;;;;5111566;28;19969;-32
2024/01/23 00:32:37;;;;;;;;;;;6.50;99.90;;;;;;5095702;28;19924;-32
2024/01/23 00:35:04;;;;;;;;;;;6.50;99.90;;;;;;5092003;28;19928;-32
2024/01/23 00:37:32;;;;;;;;;;;6.50;99.90;;;;;;5109159;27;19928;-32
2024/01/23 00:39:59;;;;;;;;;;;6.40;99.90;;;;;;5092510;28;20203;-32
2024/01/23 00:42:26;;;;;;;;;;;6.40;99.90;;;;;;5093421;28;19985;-33
2024/01/23 00:44:53;;;;;;;;;;;6.40;99.90;;;;;;5095482;28;19964;-33
2024/01/23 00:47:20;;;;;;;;;;;6.40;99.90;;;;;;5111191;28;20344;-32
2024/01/23 00:49:46;;;;;;;;;;;6.40;99.90;;;;;;5091900;28;20092;-32
2024/01/23 00:52:13;;;;;;;;;;;6.40;99.90;;;;;;5111320;27;19985;-35
2024/01/23 00:54:41;;;;;;;;;;;6.50;99.90;;;;;;5092640;28;20439;-33
2024/01/23 00:57:08;;;;;;;;;;;6.50;99.90;;;;;;5095283;28;20264;-33
2024/01/23 00:59:34;;;;;;;;;;;6.50;99.90;;;;;;5092546;28;20031;-33
2024/01/23 01:02:01;;;;;;;;;;;6.40;99.90;;;;;;5094648;28;19923;-32
2024/01/23 01:04:28;;;;;;;;;;;6.40;99.90;;;;;;5093021;28;19977;-33
2024/01/23 01:06:54;;;;;;;;;;;6.30;99.90;;;;;;5110259;28;20323;-33
2024/01/23 01:09:21;;;;;;;;;;;6.40;99.90;;;;;;5094467;28;20011;-32
2024/01/23 01:11:49;;;;;;;;;;;6.30;99.90;;;;;;5093403;28;20085;-33
2024/01/23 01:14:15;;;;;;;;;;;6.30;99.90;;;;;;5091361;28;20017;-33
2024/01/23 01:16:42;;;;;;;;;;;6.30;99.90;;;;;;5091128;28;20368;-32
2024/01/23 01:19:09;;;;;;;;;;;6.30;99.90;;;;;;5090425;28;20008;-32
2024/01/23 01:21:35;;;;;;;;;;;6.30;99.90;;;;;;5112434;28;20366;-33
2024/01/23 01:24:02;;;;;;;;;;;6.30;99.90;;;;;;5112975;28;19959;-32
2024/01/23 01:26:29;;;;;;;;;;;6.30;99.90;;;;;;5091662;28;19924;-33
2024/01/23 01:28:57;;;;;;;;;;;6.30;99.90;;;;;;5084456;28;19973;-32
2024/01/23 01:31:23;;;;;;;;;;;6.30;99.90;;;;;;5090148;28;19938;-33
2024/01/23 01:33:50;;;;;;;;;;;6.30;99.90;;;;;;5093788;28;19932;-31
2024/01/23 01:36:17;;;;;;;;;;;6.30;99.90;;;;;;5084663;28;19977;-33
2024/01/23 01:38:43;;;;;;;;;;;6.30;99.90;;;;;;5094343;28;19924;-32
2024/01/23 01:41:10;;;;;;;;;;;6.30;99.90;;;;;;5093585;28;19928;-32
2024/01/23 01:43:36;;;;;;;;;;;6.20;99.90;;;;;;5092418;28;20039;-32
2024/01/23 01:46:15;;;;;;;;;;;6.30;99.90;;;;;;5105482;28;19928;-33
2024/01/23 01:48:42;;;;;;;;;;;6.30;99.90;;;;;;5093489;28;19928;-33
2024/01/23 01:51:08;;;;;;;;;;;6.30;99.90;;;;;;5088135;28;19946;-33
2024/01/23 01:53:35;;;;;;;;;;;6.30;99.90;;;;;;5091087;28;19970;-34
2024/01/23 01:56:01;;;;;;;;;;;6.30;99.90;;;;;;5090743;28;20303;-33
2024/01/23 01:58:28;;;;;;;;;;;6.20;99.90;;;;;;5112523;28;19924;-33
2024/01/23 02:00:55;;;;;;;;;;;6.20;99.90;;;;;;5092759;28;19923;-33
2024/01/23 02:03:23;;;;;;;;;;;6.10;99.90;;;;;;5090190;28;19977;-32
2024/01/23 02:05:50;;;;;;;;;;;6.10;99.90;;;;;;5077345;28;19927;-33
2024/01/23 02:08:16;;;;;;;;;;;6.20;99.90;;;;;;5092890;28;19970;-32
2024/01/23 02:10:43;;;;;;;;;;;6.10;99.90;;;;;;5093492;28;19924;-31
2024/01/23 02:13:10;;;;;;;;;;;6.10;99.90;;;;;;5110399;28;19927;-32
2024/01/23 02:15:36;;;;;;;;;;;6.10;99.90;;;;;;5092671;28;20435;-32
2024/01/23 02:18:03;;;;;;;;;;;6.10;99.90;;;;;;5093945;28;19945;-32
2024/01/23 02:20:31;;;;;;;;;;;6.10;99.90;;;;;;5076424;28;19927;-32
2024/01/23 02:22:58;;;;;;;;;;;6.00;99.90;;;;;;5085631;28;19977;-32
2024/01/23 02:25:26;;;;;;;;;;;6.00;99.90;;;;;;5091030;28;19979;-31
2024/01/23 02:27:53;;;;;;;;;;;6.10;99.90;;;;;;5108299;28;19924;-32
2024/01/23 02:30:19;;;;;;;;;;;6.00;99.90;;;;;;5089980;28;19955;-32
2024/01/23 02:32:46;;;;;;;;;;;6.00;99.90;;;;;;5099706;28;19924;-32
2024/01/23 02:35:13;;;;;;;;;;;5.90;99.90;;;;;;5088731;28;20018;-32
2024/01/23 02:37:40;;;;;;;;;;;5.90;99.90;;;;;;5093641;28;19935;-31
2024/01/23 02:40:07;;;;;;;;;;;6.00;99.90;;;;;;5091993;28;20436;-33
2024/01/23 02:42:35;;;;;;;;;;;5.90;99.90;;;;;;5111282;28;20020;-33
2024/01/23 02:45:02;;;;;;;;;;;5.90;99.90;;;;;;5111332;28;20305;-32
2024/01/23 02:47:28;;;;;;;;;;;5.90;99.90;;;;;;5091556;28;19924;-33
2024/01/23 02:49:55;;;;;;;;;;;5.80;99.90;;;;;;5086375;28;19923;-31
2024/01/23 02:52:22;;;;;;;;;;;5.80;99.90;;;;;;5092497;28;19927;-31
2024/01/23 02:54:48;;;;;;;;;;;5.80;99.90;;;;;;5112278;28;19928;-31
2024/01/23 02:57:15;;;;;;;;;;;5.80;99.90;;;;;;5093705;28;19978;-32
2024/01/23 02:59:43;;;;;;;;;;;5.80;99.90;;;;;;5092846;28;19924;-31
2024/01/23 03:02:09;;;;;;;;;;;5.70;99.90;;;;;;5091109;28;19924;-31
2024/01/23 03:04:36;;;;;;;;;;;5.70;99.90;;;;;;5112567;28;19924;-32
2024/01/23 03:07:03;;;;;;;;;;;5.70;99.90;;;;;;5110667;28;19970;-32
2024/01/23 03:09:29;;;;;;;;;;;5.70;99.90;;;;;;5097199;28;19949;-34
2024/01/23 03:11:56;;;;;;;;;;;5.80;99.90;;;;;;5096354;28;20015;-33
2024/01/23 03:14:23;;;;;;;;;;;5.80;99.90;;;;;;5090913;28;20413;-32
2024/01/23 03:16:50;;;;;;;;;;;5.80;99.90;;;;;;5094141;28;19984;-31
2024/01/23 03:19:17;;;;;;;;;;;5.80;99.90;;;;;;5093860;28;20084;-31
2024/01/23 03:21:44;;;;;;;;;;;5.80;99.90;;;;;;5095098;27;19928;-32
2024/01/23 03:24:10;;;;;;;;;;;5.80;99.90;;;;;;5084472;28;19949;-32
2024/01/23 03:26:37;;;;;;;;;;;5.90;99.90;;;;;;5092303;28;19923;-31
2024/01/23 03:29:04;;;;;;;;;;;6.00;99.90;;;;;;5111065;28;19928;-31
2024/01/23 03:31:30;;;;;;;;;;;6.00;99.90;;;;;;5110767;28;19972;-33
2024/01/23 03:33:58;;;;;;;;;;;6.10;99.90;;;;;;5112910;28;20437;-31
2024/01/23 03:36:25;;;;;;;;;;;6.10;99.90;;;;;;5096173;28;19931;-32
2024/01/23 03:38:52;;;;;;;;;;;6.20;99.90;;;;;;5094824;28;19924;-32
2024/01/23 03:41:18;;;;;;;;;;;6.10;99.90;;;;;;5092887;28;20001;-32
2024/01/23 03:43:45;;;;;;;;;;;6.20;99.90;;;;;;5110909;28;20294;-32
2024/01/23 03:46:12;;;;;;;;;;;6.20;99.90;;;;;;5114201;28;20318;-32
2024/01/23 03:48:38;;;;;;;;;;;6.20;99.90;;;;;;5113341;28;19923;-31
2024/01/23 03:51:07;;;;;;;;;;;6.30;99.90;;;;;;5094081;28;19973;-33
2024/01/23 03:53:33;;;;;;;;;;;6.30;99.90;;;;;;5110571;28;19924;-32
2024/01/23 03:56:00;;;;;;;;;;;6.30;99.90;;;;;;5093804;28;19927;-31
2024/01/23 03:58:26;;;;;;;;;;;6.30;99.90;;;;;;5093772;28;19924;-32
2024/01/23 04:00:53;;;;;;;;;;;6.30;99.90;;;;;;5096097;28;20341;-33
2024/01/23 04:03:20;;;;;;;;;;;6.30;99.90;;;;;;5096517;28;19931;-35
2024/01/23 04:05:46;;;;;;;;;;;6.30;99.90;;;;;;5089469;28;19924;-32
2024/01/23 04:08:14;;;;;;;;;;;6.30;99.90;;;;;;5093218;28;19928;-32
2024/01/23 04:10:41;;;;;;;;;;;6.30;99.90;;;;;;5093333;28;19931;-32
2024/01/23 04:13:08;;;;;;;;;;;6.30;99.90;;;;;;5113687;28;19976;-32
2024/01/23 04:15:34;;;;;;;;;;;6.40;99.90;;;;;;5095618;28;19971;-34
2024/01/23 04:18:01;;;;;;;;;;;6.40;99.90;;;;;;5094625;28;19928;-31
2024/01/23 04:20:27;;;;;;;;;;;6.40;99.90;;;;;;5099334;28;19924;-31
2024/01/23 04:22:54;;;;;;;;;;;6.40;99.90;;;;;;5093238;28;20329;-33
2024/01/23 04:25:22;;;;;;;;;;;6.40;99.90;;;;;;5095751;28;19927;-32
2024/01/23 04:27:49;;;;;;;;;;;6.50;99.90;;;;;;5086039;28;19970;-31
2024/01/23 04:30:15;;;;;;;;;;;6.50;99.90;;;;;;5079347;28;20356;-31
2024/01/23 04:32:44;;;;;;;;;;;6.60;99.90;;;;;;5093718;28;19977;-33
2024/01/23 04:35:11;;;;;;;;;;;6.50;99.90;;;;;;5093025;28;19928;-32
2024/01/23 04:37:38;;;;;;;;;;;6.50;99.90;;;;;;5092720;28;19982;-32
2024/01/23 04:40:07;;;;;;;;;;;6.60;99.90;;;;;;5094484;28;19940;-31
2024/01/23 04:42:35;;;;;;;;;;;6.50;99.90;;;;;;5092636;28;19965;-32
2024/01/23 04:45:02;;;;;;;;;;;6.60;99.90;;;;;;5109698;28;19970;-31
2024/01/23 04:47:28;;;;;;;;;;;6.60;99.90;;;;;;5111138;28;19932;-32
2024/01/23 04:49:55;;;;;;;;;;;6.60;99.90;;;;;;5084479;28;20020;-33
2024/01/23 04:52:22;;;;;;;;;;;6.60;99.90;;;;;;5091875;28;20367;-31
2024/01/23 04:54:48;;;;;;;;;;;6.60;99.90;;;;;;5092544;28;20032;-31
2024/01/23 04:57:17;;;;;;;;;;;6.60;99.90;;;;;;5092940;28;19924;-31
2024/01/23 04:59:45;;;;;;;;;;;6.60;99.90;;;;;;5094671;28;19924;-31
2024/01/23 05:02:11;;;;;;;;;;;6.60;99.90;;;;;;5109240;27;19924;-31
2024/01/23 05:04:38;;;;;;;;;;;6.60;99.90;;;;;;5091762;28;19970;-31
2024/01/23 05:07:05;;;;;;;;;;;6.60;99.90;;;;;;5092164;28;19923;-31
2024/01/23 05:09:32;;;;;;;;;;;6.60;99.90;;;;;;5110744;28;19928;-31
2024/01/23 05:11:59;;;;;;;;;;;6.70;99.90;;;;;;5093687;28;20420;-31
2024/01/23 05:14:25;;;;;;;;;;;6.60;99.90;;;;;;5093056;28;19924;-31
2024/01/23 05:16:53;;;;;;;;;;;6.70;99.90;;;;;;5096135;27;19923;-32
2024/01/23 05:19:21;;;;;;;;;;;6.70;99.90;;;;;;5094906;28;20020;-31
2024/01/23 05:21:47;;;;;;;;;;;6.80;99.90;;;;;;5089677;28;20329;-32
2024/01/23 05:24:14;;;;;;;;;;;6.70;99.90;;;;;;5093448;28;19924;-33
2024/01/23 05:26:41;;;;;;;;;;;6.70;99.90;;;;;;5089684;28;19967;-32
2024/01/23 05:29:07;;;;;;;;;;;6.70;99.90;;;;;;5111279;28;19931;-32
2024/01/23 05:31:34;;;;;;;;;;;6.70;99.90;;;;;;5090350;28;19977;-30
2024/01/23 05:34:02;;;;;;;;;;;6.80;99.90;;;;;;5091069;28;19931;-34
2024/01/23 05:36:29;;;;;;;;;;;6.70;99.90;;;;;;5091728;28;19932;-31
2024/01/23 05:38:55;;;;;;;;;;;6.70;99.90;;;;;;5087037;28;19924;-33
2024/01/23 05:41:22;;;;;;;;;;;6.70;99.90;;;;;;5085964;28;19928;-32
2024/01/23 05:43:50;;;;;;;;;;;6.70;99.90;;;;;;5089872;28;19978;-30
2024/01/23 05:46:16;;;;;;;;;;;6.70;99.90;;;;;;5086756;28;20174;-31
2024/01/23 05:48:43;;;;;;;;;;;6.70;99.90;;;;;;5081114;28;19963;-32
2024/01/23 05:51:11;;;;;;;;;;;6.70;99.90;;;;;;5106059;28;19928;-31
2024/01/23 05:53:37;;;;;;;;;;;6.70;99.90;;;;;;5088652;28;19928;-32
2024/01/23 05:56:04;;;;;;;;;;;6.70;99.90;;;;;;5101537;28;20375;-32
2024/01/23 05:58:31;;;;;;;;;;;6.70;99.90;;;;;;5105776;28;19989;-31
2024/01/23 06:00:58;;;;;;;;;;;6.80;99.90;;;;;;5086087;28;19924;-30
2024/01/23 06:03:24;;;;;;;;;;;6.80;99.90;;;;;;5085835;28;19927;-31
2024/01/23 06:05:51;;;;;;;;;;;6.80;99.90;;;;;;5109235;28;19942;-33
2024/01/23 06:08:19;;;;;;;;;;;6.80;99.90;;;;;;5089783;28;19932;-33
2024/01/23 06:10:47;;;;;;;;;;;6.80;99.90;;;;;;5092757;28;19924;-32
2024/01/23 06:13:13;;;;;;;;;;;6.80;99.90;;;;;;5086175;28;20409;-32
2024/01/23 06:15:40;;;;;;;;;;;6.80;99.90;;;;;;5087581;28;19936;-32
2024/01/23 06:18:08;;;;;;;;;;;6.80;99.90;;;;;;5087507;28;19931;-32
2024/01/23 06:20:34;;;;;;;;;;;6.80;99.90;;;;;;5103210;28;19924;-33
2024/01/23 06:23:01;;;;;;;;;;;6.80;99.90;;;;;;5103885;28;19932;-34
2024/01/23 06:25:30;;;;;;;;;;;6.80;99.90;;;;;;5092138;28;20423;-32
2024/01/23 06:27:57;;;;;;;;;;;6.80;99.90;;;;;;5082070;28;20363;-33
2024/01/23 06:30:24;;;;;;;;;;;6.80;99.90;;;;;;5090325;28;19923;-33
2024/01/23 06:32:50;;;;;;;;;;;6.80;99.90;;;;;;5081731;28;20043;-32
2024/01/23 06:35:17;;;;;;;;;;;6.80;99.90;;;;;;5084298;28;20359;-32
2024/01/23 06:37:43;;;;;;;;;;;6.80;99.90;;;;;;5108877;28;20024;-31
2024/01/23 06:40:11;;;;;;;;;;;6.80;99.90;;;;;;5094384;28;19928;-32
2024/01/23 06:42:39;;;;;;;;;;;6.80;99.90;;;;;;5087759;28;19924;-31
2024/01/23 06:45:06;;;;;;;;;;;6.80;99.90;;;;;;5096429;28;19930;-32
2024/01/23 06:47:33;;;;;;;;;;;6.70;99.90;;;;;;5115976;28;20341;-31
2024/01/23 06:49:59;;;;;;;;;;;6.70;99.90;;;;;;5115656;28;20329;-32
2024/01/23 06:52:26;;;;;;;;;;;6.60;99.90;;;;;;5097208;28;19966;-32
2024/01/23 06:54:53;;;;;;;;;;;6.60;99.90;;;;;;5115000;28;19969;-31
2024/01/23 06:57:19;;;;;;;;;;;6.60;99.90;;;;;;5096169;28;19977;-32
2024/01/23 06:59:47;;;;;;;;;;;6.60;99.90;;;;;;5096709;28;20372;-32
2024/01/23 07:02:14;;;;;;;;;;;6.50;99.90;;;;;;5094820;28;19924;-32
2024/01/23 07:04:41;;;;;;;;;;;6.50;99.90;;;;;;5095526;28;20386;-32
2024/01/23 07:07:08;;;;;;;;;;;6.50;99.90;;;;;;5096588;28;20170;-34
2024/01/23 07:09:35;;;;;;;;;;;6.50;99.90;;;;;;5096534;28;19923;-32
2024/01/23 07:12:02;;;;;;;;;;;6.50;99.90;;;;;;5094864;28;20432;-34
2024/01/23 07:14:28;;;;;;;;;;;6.40;99.90;;;;;;5103102;28;20023;-34
2024/01/23 07:16:56;;;;;;;;;;;6.40;99.90;;;;;;5096810;28;20027;-34
2024/01/23 07:19:23;;;;;;;;;;;6.30;99.90;;;;;;5092019;28;19924;-33
2024/01/23 07:21:49;;;;;;;;;;;6.30;99.90;;;;;;5112870;28;20471;-33
2024/01/23 07:24:17;;;;;;;;;;;6.30;99.90;;;;;;5113475;28;19969;-32
2024/01/23 07:26:43;;;;;;;;;;;6.30;99.90;;;;;;5088725;28;20015;-33
2024/01/23 07:29:10;;;;;;;;;;;6.20;99.90;;;;;;5076433;28;19977;-32
2024/01/23 07:31:37;;;;;;;;;;;6.20;99.90;;;;;;5096516;28;19971;-33
2024/01/23 07:34:05;;;;;;;;;;;6.30;99.90;;;;;;5113515;28;19924;-33
2024/01/23 07:36:32;;;;;;;;;;;6.20;99.90;;;;;;5096228;28;19976;-34
2024/01/23 07:38:58;;;;;;;;;;;6.10;99.90;;;;;;5113571;28;19953;-32
2024/01/23 07:41:25;;;;;;;;;;;6.10;99.90;;;;;;5114009;28;19969;-33
2024/01/23 07:43:51;;;;;;;;;;;6.10;99.90;;;;;;5086844;28;19981;-34
2024/01/23 07:46:20;;;;;;;;;;;6.10;99.90;;;;;;5113939;28;19924;-33
2024/01/23 07:48:46;;;;;;;;;;;6.10;99.90;;;;;;5096036;28;20551;-33
2024/01/23 07:51:14;;;;;;;;;;;6.10;99.90;;;;;;5095158;28;19924;-33
2024/01/23 07:53:43;;;;;;;;;;;6.00;99.90;;;;;;5094333;28;19993;-32
2024/01/23 07:56:10;;;;;;;;;;;6.00;99.90;;;;;;5108898;28;19993;-33
2024/01/23 07:58:36;;;;;;;;;;;6.00;99.90;;;;;;5095293;28;20402;-33
2024/01/23 08:01:03;;;;;;;;;;;6.00;99.90;;;;;;5113406;28;19924;-33
2024/01/23 08:03:30;;;;;;;;;;;5.90;99.90;;;;;;5111576;28;19984;-33
2024/01/23 08:05:57;;;;;;;;;;;5.90;99.90;;;;;;5095262;28;20272;-34
2024/01/23 08:08:25;;;;;;;;;;;5.90;99.90;;;;;;5096186;28;19978;-33
2024/01/23 08:10:52;;;;;;;;;;;5.90;99.90;;;;;;5113493;28;19935;-33
2024/01/23 08:13:20;;;;;;;;;;;5.80;99.90;;;;;;5089817;28;19975;-32
2024/01/23 08:15:47;;;;;;;;;;;5.80;99.90;;;;;;5081014;28;19923;-32
2024/01/23 08:18:13;;;;;;;;;;;5.80;99.90;;;;;;5095418;28;19924;-32
2024/01/23 08:20:40;;;;;;;;;;;5.80;99.90;;;;;;5114203;28;20453;-33
2024/01/23 08:23:07;;;;;;;;;;;5.90;99.90;;;;;;5094339;28;19980;-32
2024/01/23 08:25:35;;;;;;;;;;;5.80;99.90;;;;;;5095777;28;19969;-32
2024/01/23 08:28:02;;;;;;;;;;;5.80;99.90;;;;;;5083115;28;19934;-32
2024/01/23 08:30:28;;;;;;;;;;;5.80;99.90;;;;;;5092801;28;19924;-31
2024/01/23 08:32:55;;;;;;;;;;;5.80;99.90;;;;;;5094795;28;20428;-32
2024/01/23 08:35:21;;;;;;;;;;;5.80;99.90;;;;;;5095751;28;19931;-32
2024/01/23 08:37:48;;;;;;;;;;;5.80;99.90;;;;;;5094447;28;19923;-32
2024/01/23 08:40:16;;;;;;;;;;;5.80;99.90;;;;;;5093213;28;20298;-34
2024/01/23 08:42:44;;;;;;;;;;;5.80;99.90;;;;;;5077956;28;19928;-33
2024/01/23 08:45:11;;;;;;;;;;;5.80;99.90;;;;;;5111229;28;20379;-31
2024/01/23 08:47:37;;;;;;;;;;;5.80;99.90;;;;;;5095653;28;19977;-31
2024/01/23 08:50:04;;;;;;;;;;;5.90;99.90;;;;;;5111190;28;20341;-32
2024/01/23 08:52:31;;;;;;;;;;;5.90;99.90;;;;;;5094451;28;20290;-34
2024/01/23 08:54:57;;;;;;;;;;;5.90;99.90;;;;;;5092691;28;19924;-32
2024/01/23 08:57:24;;;;;;;;;;;5.90;99.90;;;;;;5111724;28;19953;-32
2024/01/23 08:59:53;;;;;;;;;;;6.00;99.90;;;;;;5111046;28;20677;-32
2024/01/23 09:02:19;;;;;;;;;;;6.00;99.90;;;;;;5093878;28;19923;-37
2024/01/23 09:04:47;;;;;;;;;;;6.00;99.90;;;;;;5078645;28;19928;-32
2024/01/23 09:07:14;;;;;;;;;;;6.00;99.90;;;;;;5065968;28;20245;-31
2024/01/23 09:09:40;;;;;;;;;;;6.00;99.90;;;;;;5079774;28;19924;-32
2024/01/23 09:12:07;;;;;;;;;;;6.10;99.90;;;;;;5111648;28;20379;-33
2024/01/23 09:14:34;;;;;;;;;;;6.10;99.90;;;;;;5112939;28;19935;-32
2024/01/23 09:17:05;;;;;;;;;;;6.20;99.90;;;;;;5094139;28;20345;-32
2024/01/23 09:19:31;;;;;;;;;;;6.20;99.90;;;;;;5113057;28;19924;-31
2024/01/23 09:21:58;;;;;;;;;;;6.20;99.90;;;;;;5104229;28;19954;-32
2024/01/23 09:24:25;;;;;;;;;;;6.20;99.90;;;;;;5098969;28;19949;-32
2024/01/23 09:26:58;;;;;;;;;;;6.30;99.90;;;;;;5093218;28;20014;-32
2024/01/23 09:29:24;;;;;;;;;;;6.30;99.90;;;;;;5094523;28;19931;-33
2024/01/23 09:31:51;;;;;;;;;;;6.40;99.90;;;;;;5112276;28;19953;-33
2024/01/23 09:34:19;;;;;;;;;;;6.40;99.90;;;;;;5094123;28;19924;-33
2024/01/23 09:36:46;;;;;;;;;;;6.50;99.90;;;;;;5111968;28;19927;-32
2024/01/23 09:39:13;;;;;;;;;;;6.50;99.90;;;;;;5112072;28;19977;-32
2024/01/23 09:41:41;;;;;;;;;;;6.60;99.90;;;;;;5093987;28;20438;-31
2024/01/23 09:44:08;;;;;;;;;;;6.60;99.90;;;;;;5092601;28;19923;-33
2024/01/23 09:46:35;;;;;;;;;;;6.60;99.90;;;;;;5092019;28;19976;-31
2024/01/23 09:49:01;;;;;;;;;;;6.70;99.90;;;;;;5111554;28;20291;-31
2024/01/23 09:51:29;;;;;;;;;;;6.80;99.90;;;;;;5093665;28;20372;-31
2024/01/23 09:53:56;;;;;;;;;;;6.80;99.90;;;;;;5093939;28;20614;-33
2024/01/23 09:56:23;;;;;;;;;;;6.80;99.90;;;;;;5092885;28;19977;-31
2024/01/23 09:58:50;;;;;;;;;;;7.00;99.90;;;;;;5112055;28;19976;-32
2024/01/23 10:01:17;;;;;;;;;;;7.10;99.90;;;;;;5093660;28;19924;-32
2024/01/23 10:03:48;;;;;;;;;;;7.10;99.90;;;;;;5086667;28;20391;-31
2024/01/23 10:06:15;;;;;;;;;;;7.10;99.90;;;;;;5073754;28;19924;-32
2024/01/23 10:08:42;;;;;;;;;;;7.10;99.90;;;;;;5092226;28;20372;-32
2024/01/23 10:11:10;;;;;;;;;;;7.20;99.90;;;;;;5110739;28;20436;-32
2024/01/23 10:13:37;;;;;;;;;;;7.20;99.90;;;;;;5093081;28;19931;-32
2024/01/23 10:16:05;;;;;;;;;;;7.30;99.90;;;;;;5111372;28;19969;-33
2024/01/23 10:18:32;;;;;;;;;;;7.30;99.90;;;;;;5092965;28;20632;-31
2024/01/23 10:20:59;;;;;;;;;;;7.30;99.90;;;;;;5111332;28;19923;-32
2024/01/23 10:23:26;;;;;;;;;;;7.40;99.90;;;;;;5111628;28;19924;-32
2024/01/23 10:25:54;;;;;;;;;;;7.50;99.90;;;;;;5093430;28;19973;-32
2024/01/23 10:28:22;;;;;;;;;;;7.50;99.90;;;;;;5111263;28;20403;-31
2024/01/23 10:30:49;;;;;;;;;;;7.50;99.90;;;;;;5093062;28;19923;-33
2024/01/23 10:33:15;;;;;;;;;;;7.50;99.90;;;;;;5093152;28;19923;-32
2024/01/23 10:35:42;;;;;;;;;;;7.50;99.90;;;;;;5110253;28;19924;-33
2024/01/23 10:38:09;;;;;;;;;;;7.50;99.90;;;;;;5110231;28;19923;-33
2024/01/23 10:40:35;;;;;;;;;;;7.60;99.90;;;;;;5106461;28;19988;-31
2024/01/23 10:43:03;;;;;;;;;;;7.60;99.90;;;;;;5093067;28;19923;-31
2024/01/23 10:45:31;;;;;;;;;;;7.70;99.90;;;;;;5111624;28;19924;-32
2024/01/23 10:48:00;;;;;;;;;;;7.70;99.90;;;;;;5093156;28;19924;-31
2024/01/23 10:50:29;;;;;;;;;;;7.80;99.90;;;;;;5092558;28;19923;-33
2024/01/23 10:52:55;;;;;;;;;;;7.80;99.90;;;;;;5092611;28;19971;-32
2024/01/23 10:55:22;;;;;;;;;;;7.80;99.90;;;;;;5111157;28;19924;-31
2024/01/23 10:57:49;;;;;;;;;;;7.80;99.90;;;;;;5111454;28;20273;-31
2024/01/23 11:00:17;;;;;;;;;;;7.90;99.90;;;;;;5110614;28;19969;-31
2024/01/23 11:02:46;;;;;;;;;;;7.90;99.90;;;;;;5093078;28;20459;-32
2024/01/23 11:05:13;;;;;;;;;;;8.00;99.90;;;;;;5073480;28;20425;-32
2024/01/23 11:07:41;;;;;;;;;;;8.00;99.90;;;;;;5072548;28;19973;-31
2024/01/23 11:10:10;;;;;;;;;;;8.00;99.90;;;;;;5076485;28;19924;-32
2024/01/23 11:12:38;;;;;;;;;;;8.00;99.90;;;;;;5093154;28;19924;-31
2024/01/23 11:15:07;;;;;;;;;;;8.00;99.90;;;;;;5110982;28;19977;-30
2024/01/23 11:17:35;;;;;;;;;;;8.00;99.90;;;;;;5093084;28;20193;-31
2024/01/23 11:20:05;;;;;;;;;;;8.10;99.90;;;;;;5092076;28;19924;-32
2024/01/23 11:22:32;;;;;;;;;;;8.10;99.90;;;;;;5092673;28;20410;-31
2024/01/23 11:24:58;;;;;;;;;;;8.00;99.90;;;;;;5092692;28;19928;-31
2024/01/23 11:27:25;;;;;;;;;;;8.10;99.90;;;;;;5096726;28;19949;-32
2024/01/23 11:29:52;;;;;;;;;;;8.00;99.90;;;;;;5096048;28;19924;-31
2024/01/23 11:32:19;;;;;;;;;;;7.90;99.90;;;;;;5096854;28;19981;-32
2024/01/23 11:34:47;;;;;;;;;;;7.90;99.90;;;;;;5096643;28;19924;-31
2024/01/23 11:37:35;;;;;;;;;;;7.90;99.90;;;;;;5096184;28;19924;-31
2024/01/23 11:40:03;;;;;;;;;;;7.90;99.90;;;;;;5087908;28;19924;-31
2024/01/23 11:42:35;;;;;;;;;;;7.90;99.90;;;;;;5085021;28;19963;-32
2024/01/23 11:45:16;;;;;;;;;;;7.90;99.90;;;;;;5096400;28;20295;-32
2024/01/23 11:47:43;;;;;;;;;;;7.90;99.90;;;;;;5113607;28;19924;-32
2024/01/23 11:50:11;;;;;;;;;;;7.90;99.90;;;;;;5114326;28;20346;-32
2024/01/23 11:52:37;;;;;;;;;;;7.80;99.90;;;;;;5114044;28;19970;-31
2024/01/23 11:55:04;;;;;;;;;;;7.80;99.90;;;;;;5114399;28;19953;-32
2024/01/23 11:57:33;;;;;;;;;;;7.80;99.90;;;;;;5095891;28;19988;-31
2024/01/23 12:00:00;;;;;;;;;;;7.80;99.90;;;;;;5095898;28;19924;-32
2024/01/23 12:02:27;;;;;;;;;;;7.80;99.90;;;;;;5095984;28;19924;-32
2024/01/23 12:04:53;;;;;;;;;;;7.90;99.90;;;;;;5104106;28;19927;-32
2024/01/23 12:07:21;;;;;;;;;;;7.90;99.90;;;;;;5095810;28;20023;-32
2024/01/23 12:09:49;;;;;;;;;;;8.00;99.90;;;;;;5096066;28;19928;-32
2024/01/23 12:12:15;;;;;;;;;;;8.00;99.90;;;;;;5095078;28;19935;-32
2024/01/23 12:14:42;;;;;;;;;;;8.00;99.90;;;;;;5099627;28;19940;-35
2024/01/23 12:17:09;;;;;;;;;;;8.10;99.90;;;;;;5093316;28;20272;-32
2024/01/23 12:19:43;;;;;;;;;;;8.20;99.90;;;;;;5075483;28;19966;-33
2024/01/23 12:22:10;;;;;;;;;;;8.20;99.90;;;;;;5093476;28;19924;-32
2024/01/23 12:24:38;;;;;;;;;;;8.30;99.90;;;;;;5091431;28;20108;-32
2024/01/23 12:27:05;;;;;;;;;;;8.30;99.90;;;;;;5113439;28;19924;-32
2024/01/23 12:29:32;;;;;;;;;;;8.30;99.90;;;;;;5095451;28;19927;-31
2024/01/23 12:31:59;;;;;;;;;;;8.30;99.90;;;;;;5095320;28;19924;-31
2024/01/23 12:34:26;;;;;;;;;;;8.40;99.90;;;;;;5094377;28;19924;-31
2024/01/23 12:36:52;;;;;;;;;;;8.40;99.90;;;;;;5081950;28;20371;-31
2024/01/23 12:39:19;;;;;;;;;;;8.50;99.90;;;;;;5092881;28;19924;-33
2024/01/23 12:41:47;;;;;;;;;;;8.50;99.90;;;;;;5081056;28;19931;-32
2024/01/23 12:44:14;;;;;;;;;;;8.60;99.90;;;;;;5094771;28;19927;-31
2024/01/23 12:46:40;;;;;;;;;;;8.60;99.90;;;;;;5094941;28;19924;-31
2024/01/23 12:49:07;;;;;;;;;;;8.60;99.90;;;;;;5113448;28;19924;-33
2024/01/23 12:51:35;;;;;;;;;;;8.60;99.90;;;;;;5113133;28;19924;-31
2024/01/23 12:54:02;;;;;;;;;;;8.70;99.90;;;;;;5087587;28;19924;-32
2024/01/23 12:56:29;;;;;;;;;;;8.70;99.90;;;;;;5074579;28;20013;-31
2024/01/23 12:58:57;;;;;;;;;;;8.70;99.90;;;;;;5092626;28;20413;-32
2024/01/23 13:01:24;;;;;;;;;;;8.70;99.90;;;;;;5092328;28;19924;-31
2024/01/23 13:03:51;;;;;;;;;;;8.70;99.90;;;;;;5101225;28;19923;-32
2024/01/23 13:06:18;;;;;;;;;;;8.70;99.90;;;;;;5112937;28;19924;-31
2024/01/23 13:08:44;;;;;;;;;;;8.60;99.90;;;;;;5094695;28;20545;-31
2024/01/23 13:11:11;;;;;;;;;;;8.60;99.90;;;;;;5095064;28;19923;-31
2024/01/23 13:13:38;;;;;;;;;;;8.50;99.90;;;;;;5093883;28;19976;-33
2024/01/23 13:16:06;;;;;;;;;;;8.50;99.90;;;;;;5112446;28;20022;-30
2024/01/23 13:18:33;;;;;;;;;;;8.40;99.90;;;;;;5112878;28;19924;-31
2024/01/23 13:21:00;;;;;;;;;;;8.30;99.90;;;;;;5093822;28;19934;-31
2024/01/23 13:23:26;;;;;;;;;;;8.30;99.90;;;;;;5094105;28;19977;-32
2024/01/23 13:25:53;;;;;;;;;;;8.20;99.90;;;;;;5112404;28;20361;-31
2024/01/23 13:28:21;;;;;;;;;;;8.20;99.90;;;;;;5112541;28;20398;-31
2024/01/23 13:30:48;;;;;;;;;;;8.20;99.90;;;;;;5093781;28;19977;-32
2024/01/23 13:33:16;;;;;;;;;;;8.20;99.90;;;;;;5094507;28;20365;-32
2024/01/23 13:35:43;;;;;;;;;;;8.20;99.90;;;;;;5090886;28;19946;-31
2024/01/23 13:38:10;;;;;;;;;;;8.10;99.90;;;;;;5074089;28;20409;-31
2024/01/23 13:40:37;;;;;;;;;;;8.10;99.90;;;;;;5077967;28;20011;-31
2024/01/23 13:43:03;;;;;;;;;;;8.10;99.90;;;;;;5107208;28;19923;-32
2024/01/23 13:45:30;;;;;;;;;;;8.10;99.90;;;;;;5075899;28;19977;-32
2024/01/23 13:47:57;;;;;;;;;;;8.10;99.90;;;;;;5094809;28;19934;-32
2024/01/23 13:50:25;;;;;;;;;;;8.10;99.90;;;;;;5092936;28;19928;-31
2024/01/23 13:52:54;;;;;;;;;;;8.10;99.90;;;;;;5106458;28;19975;-33
2024/01/23 13:55:21;;;;;;;;;;;8.10;99.90;;;;;;5109821;28;20016;-32
2024/01/23 13:57:47;;;;;;;;;;;8.00;99.90;;;;;;5093334;28;19984;-31
2024/01/23 14:00:16;;;;;;;;;;;8.00;99.90;;;;;;5110288;28;20451;-33
2024/01/23 14:02:43;;;;;;;;;;;8.00;99.90;;;;;;5093670;28;19931;-32
2024/01/23 14:05:11;;;;;;;;;;;8.10;99.90;;;;;;5108982;28;19977;-31
2024/01/23 14:07:39;;;;;;;;;;;8.10;99.90;;;;;;5091952;28;19973;-32
2024/01/23 14:10:06;;;;;;;;;;;8.00;99.90;;;;;;5078413;28;19930;-33
2024/01/23 14:12:33;;;;;;;;;;;8.10;99.90;;;;;;5111171;28;19986;-33
2024/01/23 14:14:59;;;;;;;;;;;8.00;99.90;;;;;;5106914;28;19928;-31
2024/01/23 14:17:26;;;;;;;;;;;8.00;99.90;;;;;;5078381;28;20143;-32
2024/01/23 14:19:53;;;;;;;;;;;8.00;99.90;;;;;;5091431;28;19924;-33
2024/01/23 14:22:22;;;;;;;;;;;8.00;99.90;;;;;;5111143;28;20360;-33
2024/01/23 14:24:50;;;;;;;;;;;8.00;99.90;;;;;;5093205;28;19924;-32
2024/01/23 14:27:17;;;;;;;;;;;7.90;99.90;;;;;;5091877;28;20480;-31
2024/01/23 14:29:43;;;;;;;;;;;7.90;99.90;;;;;;5093748;28;20387;-33